Latest Weather Observations for Tuggeranong

IDN60801

Issued at 4:05 pm EST Thursday 24 July 2014 (issued every 30 minutes, with the page automatically refreshed every 10 minutes)

About weather observations | Map of weather stations | Latest weather observations for NSW | Other Formats
Station Details ID: 070339 Name: TUGGERANONG (ISABELLA PLAINS) AWS Lat: -35.42 Lon: 149.09 Height: 586.7 m
Data from the previous 72 hours. | See also: Recent months at Tuggeranong
Date/Time
EST
Temp
°C
App
Temp
°C
Dew
Point
Rel
Hum
%
Delta-T
°C
Wind Press
QNH
hPa
Press
MSL
hPa
Rain
since 9 am
mm
Dir
 
Spd
km/h
Gust
km/h
Spd
kts
Gust
kts
24/04:00pm 9.8 8.7 5.0 72 2.2 SSW 0 0 0 0 1018.3 1019.4 0.0
24/03:30pm 10.0 8.9 5.0 71 2.3 W 0 0 0 0 1018.3 - 0.0
24/03:00pm 10.1 7.7 4.5 68 2.6 WNW 6 7 3 4 1018.2 1019.3 0.0
24/02:30pm 10.7 9.5 4.8 67 2.8 CALM 0 0 0 0 1018.1 - 0.0
24/02:00pm 10.5 9.0 5.1 69 2.5 SSW 2 6 1 3 1018.0 1019.0 0.0
24/01:30pm 9.5 7.7 5.3 75 2.0 ESE 4 6 2 3 1018.7 - 0.0
24/01:00pm 8.3 6.4 4.7 78 1.6 SE 4 7 2 4 1019.4 1020.4 0.0
24/12:30pm 7.7 5.2 4.7 81 1.4 SE 7 9 4 5 1020.1 - 0.0
24/12:00pm 7.5 6.2 3.9 78 1.6 CALM 0 0 0 0 1021.1 1022.2 0.0
24/11:30am 6.9 4.3 3.2 77 1.6 NW 6 9 3 5 1021.1 - 0.0
24/11:00am 6.0 4.5 3.2 82 1.2 CALM 0 0 0 0 1021.3 1022.4 0.0
24/10:30am 5.4 4.0 3.3 86 0.9 CALM 0 0 0 0 1021.4 - 0.0
24/10:00am 4.3 2.7 2.5 88 0.7 CALM 0 0 0 0 1021.8 1022.9 0.0
24/09:30am 3.3 1.6 2.1 92 0.5 CALM 0 0 0 0 1021.9 - 0.0
24/09:00am 2.2 0.5 1.6 96 0.2 CALM 0 4 0 2 1021.8 1022.9 0.0
24/08:30am 0.8 -1.1 0.8 100 0.0 CALM 0 0 0 0 1021.8 - 0.0
24/08:00am 0.3 -2.8 0.3 100 0.0 NE 6 7 3 4 1021.4 1022.5 0.0
24/07:30am -0.7 -3.6 -1.0 98 0.1 N 4 7 2 4 1021.3 - 0.0
24/07:00am -0.4 -2.5 -0.5 99 0.0 CALM 0 0 0 0 1021.2 1022.3 0.0
24/06:30am -0.8 -2.9 -0.9 99 0.0 CALM 0 0 0 0 1021.3 - 0.0
24/06:00am -0.6 -2.7 -0.7 99 0.0 CALM 0 0 0 0 1020.9 1022.1 0.0
24/05:30am -0.7 -2.8 -0.7 100 0.0 CALM 0 0 0 0 1020.8 - 0.0
24/05:00am -1.1 -3.3 -1.2 99 0.0 CALM 0 0 0 0 1020.8 1021.9 0.0
24/04:30am -1.5 -3.7 -1.9 97 0.1 CALM 0 0 0 0 1020.7 - 0.0
24/04:00am -1.3 -3.5 -1.6 98 0.0 CALM 0 0 0 0 1020.7 1021.8 0.0
24/03:30am -1.1 -3.3 -1.5 97 0.1 CALM 0 0 0 0 1020.7 - 0.0
24/03:00am -0.5 -2.6 -0.6 99 0.0 CALM 0 0 0 0 1020.6 1021.7 0.0
24/02:30am -0.9 -3.0 -1.0 99 0.0 CALM 0 0 0 0 1020.7 - 0.0
24/02:00am -0.7 -3.9 -0.8 99 0.0 ESE 6 9 3 5 1020.8 1021.9 0.0
24/01:30am -1.4 -3.7 -2.0 96 0.1 CALM 0 0 0 0 1021.1 - 0.0
24/01:00am -1.1 -3.3 -1.7 96 0.2 CALM 0 0 0 0 1021.3 1022.4 0.0
24/12:30am -0.7 -2.9 -1.3 96 0.2 CALM 0 0 0 0 1021.6 - 0.0
24/12:00am -0.3 -2.4 -0.9 96 0.2 E 0 0 0 0 1022.0 1023.1 0.0
 
Date/Time
EST
Temp
°C
App
Temp
°C
Dew
Point
Rel
Hum
%
Delta-T
°C
Wind Press
QNH
hPa
Press
MSL
hPa
Rain
since 9 am
mm
Dir
 
Spd
km/h
Gust
km/h
Spd
kts
Gust
kts
23/11:30pm 0.0 -2.1 -0.6 96 0.2 CALM 0 0 0 0 1022.2 - 0.0
23/11:00pm 0.6 -1.4 0.0 96 0.2 CALM 0 0 0 0 1022.3 1023.5 0.0
23/10:30pm 0.8 -1.2 0.1 95 0.3 CALM 0 0 0 0 1022.6 - 0.0
23/10:00pm 1.0 -1.0 0.0 93 0.4 CALM 0 0 0 0 1022.7 1023.9 0.0
23/09:30pm 2.0 0.1 0.7 91 0.5 CALM 0 0 0 0 1022.9 - 0.0
23/09:00pm 2.8 0.3 1.5 91 0.5 E 4 6 2 3 1022.7 1023.9 0.0
23/08:30pm 3.9 1.2 2.4 90 0.6 ESE 6 7 3 4 1022.5 - 0.0
23/08:00pm 4.1 2.5 2.5 89 0.7 CALM 0 0 0 0 1022.4 1023.6 0.0
23/07:30pm 5.0 2.2 3.2 88 0.8 E 7 9 4 5 1022.3 - 0.0
23/07:00pm 5.9 3.4 3.9 87 0.9 E 6 7 3 4 1022.1 1023.2 0.0
23/06:30pm 6.6 5.3 4.3 85 1.0 CALM 0 0 0 0 1021.9 - 0.0
23/06:00pm 7.2 5.8 3.4 77 1.7 CALM 0 0 0 0 1021.7 1022.8 0.0
23/05:30pm 8.3 6.6 4.1 75 1.9 NNW 2 6 1 3 1021.6 - 0.0
23/05:00pm 9.4 6.8 4.2 70 2.4 NW 7 9 4 5 1021.3 1022.4 0.0
23/04:30pm 10.5 7.9 4.4 66 2.8 NW 7 11 4 6 1021.3 - 0.0
23/04:00pm 11.5 8.2 4.7 63 3.2 NNW 11 15 6 8 1021.2 1022.3 0.0
23/03:30pm 12.6 9.8 5.3 61 3.5 NNW 9 15 5 8 1021.1 - 0.0
23/03:00pm 12.6 9.6 4.3 57 3.9 NNW 9 15 5 8 1020.9 1022.1 0.0
23/02:30pm 12.7 9.8 4.4 57 3.9 NW 9 13 5 7 1021.1 - 0.0
23/02:00pm 12.7 10.0 3.9 55 4.1 WNW 7 15 4 8 1021.2 1022.3 0.0
23/01:30pm 13.0 10.5 4.7 57 3.9 N 7 11 4 6 1021.5 - 0.0
23/01:00pm 12.9 10.1 5.1 59 3.7 NNE 9 19 5 10 1022.0 1023.1 0.0
23/12:30pm 11.7 9.1 4.2 60 3.5 NNW 7 9 4 5 1022.4 - 0.0
23/12:00pm 10.3 8.5 3.6 63 3.0 SW 2 6 1 3 1023.1 1024.2 0.0
23/11:30am 10.2 7.9 3.0 61 3.2 ENE 4 7 2 4 1023.8 - 0.0
23/11:00am 8.6 6.7 2.6 66 2.6 WSW 2 9 1 5 1024.6 1025.8 0.0
23/10:30am 8.0 5.3 2.5 68 2.4 WNW 6 9 3 5 1025.0 - 0.0
23/10:00am 6.4 4.2 0.9 68 2.2 NW 2 6 1 3 1025.3 1026.5 0.0
23/09:30am 4.7 2.8 0.7 75 1.6 CALM 0 6 0 3 1025.6 - 0.0
23/09:00am 2.9 0.9 -0.4 79 1.3 CALM 0 4 0 2 1025.5 1026.7 0.0
23/08:30am 2.0 -0.1 -0.6 83 1.0 CALM 0 0 0 0 1025.3 - 0.0
23/08:00am -0.2 -2.3 -1.0 94 0.3 CALM 0 7 0 4 1025.1 1026.2 0.0
23/07:30am -1.1 -3.8 -2.1 93 0.3 NW 2 6 1 3 1024.8 - 0.0
23/07:00am -1.1 -3.4 -2.2 92 0.3 CALM 0 6 0 3 1024.5 1025.7 0.0
23/06:30am -0.4 -2.6 -1.8 90 0.5 CALM 0 0 0 0 1024.3 - 0.0
23/06:00am 0.1 -3.2 -1.6 88 0.6 W 6 7 3 4 1024.2 1025.4 0.0
23/05:30am 1.3 -0.8 -0.9 85 0.8 CALM 0 0 0 0 1024.0 - 0.0
23/05:00am 2.2 -0.9 -0.1 85 0.9 WSW 6 9 3 5 1024.1 1025.3 0.0
23/04:30am 2.8 0.8 0.2 83 1.0 CALM 0 0 0 0 1023.8 - 0.0
23/04:00am 2.8 0.9 0.7 86 0.8 CALM 0 0 0 0 1023.8 1025.0 0.0
23/03:30am 3.0 0.5 1.4 89 0.6 WSW 4 9 2 5 1023.7 - 0.0
23/03:00am 2.8 1.1 1.8 93 0.4 CALM 0 0 0 0 1023.7 1024.8 0.0
23/02:30am 2.4 0.7 1.7 95 0.3 CALM 0 0 0 0 1023.9 - 0.0
23/02:00am 2.1 0.3 1.5 96 0.2 CALM 0 0 0 0 1024.2 1025.4 0.0
23/01:30am 1.8 0.0 1.4 97 0.2 CALM 0 0 0 0 1024.4 - 0.0
23/01:00am 1.6 -0.2 1.2 97 0.2 CALM 0 0 0 0 1024.6 1025.8 0.0
23/12:30am 1.5 -0.3 1.2 98 0.1 CALM 0 0 0 0 1024.8 - 0.0
23/12:00am 0.8 -1.2 0.2 96 0.2 CALM 0 0 0 0 1025.0 1026.1 0.0
 
Date/Time
EST
Temp
°C
App
Temp
°C
Dew
Point
Rel
Hum
%
Delta-T
°C
Wind Press
QNH
hPa
Press
MSL
hPa
Rain
since 9 am
mm
Dir
 
Spd
km/h
Gust
km/h
Spd
kts
Gust
kts
22/11:30pm 0.8 -1.2 0.1 95 0.3 CALM 0 0 0 0 1025.1 - 0.0
22/11:00pm 1.4 -0.5 0.7 95 0.3 CALM 0 0 0 0 1025.1 1026.2 0.0
22/10:30pm 2.0 0.3 1.6 97 0.2 CALM 0 0 0 0 1025.0 - 0.0
22/10:00pm 1.8 0.0 1.2 96 0.2 CALM 0 0 0 0 1024.9 1026.0 0.0
22/09:30pm 2.3 0.6 1.7 96 0.2 CALM 0 0 0 0 1024.6 - 0.0
22/09:00pm 2.0 0.2 1.0 93 0.4 CALM 0 0 0 0 1024.3 1025.5 0.0
22/08:30pm 3.1 1.5 2.2 94 0.4 CALM 0 7 0 4 1024.0 - 0.0
22/08:00pm 3.7 2.1 2.5 92 0.5 CALM 0 0 0 0 1023.9 1025.1 0.0
22/07:30pm 4.2 2.6 2.6 89 0.7 CALM 0 0 0 0 1023.7 - 0.0
22/07:00pm 5.1 3.3 3.3 88 0.8 E 2 7 1 4 1023.7 1024.8 0.0
22/06:30pm 6.0 4.6 3.7 85 1.0 CALM 0 0 0 0 1023.6 - 0.0
22/06:00pm 6.9 5.5 3.3 78 1.6 CALM 0 0 0 0 1023.4 1024.5 0.0
22/05:30pm 8.9 7.6 3.9 71 2.3 CALM 0 0 0 0 1023.1 - 0.0
22/05:00pm 11.0 8.6 4.2 63 3.1 W 6 9 3 5 1022.6 1023.8 0.0
22/04:30pm 12.0 9.4 4.2 59 3.6 W 7 9 4 5 1022.4 - 0.0
22/04:00pm 12.8 10.4 4.5 57 3.9 WNW 6 11 3 6 1022.3 1023.5 0.0
22/03:30pm 12.8 10.2 4.0 55 4.1 W 7 13 4 7 1022.3 - 0.0
22/03:00pm 12.8 10.2 4.3 56 4.0 NW 7 13 4 7 1022.2 1023.3 0.0
22/02:30pm 12.6 11.1 4.8 59 3.7 E 2 7 1 4 1022.2 - 0.0
22/02:00pm 12.1 9.7 4.3 59 3.6 SW 6 11 3 6 1022.4 1023.6 0.0
22/01:30pm 11.5 9.0 4.5 62 3.3 SSW 7 9 4 5 1022.6 - 0.0
22/01:00pm 11.4 9.0 4.4 62 3.2 W 6 7 3 4 1023.0 1024.1 0.0
22/12:30pm 10.1 8.0 3.8 65 2.9 SW 4 9 2 5 1023.3 - 0.0
22/12:00pm 9.6 7.5 4.0 68 2.5 SSE 4 9 2 5 1023.9 1025.1 0.0
22/11:30am 8.2 5.6 3.3 71 2.2 W 6 11 3 6 1024.6 - 0.0
22/11:00am 8.3 5.9 4.1 75 1.9 NNW 6 7 3 4 1025.1 1026.2 0.0
22/10:30am 6.9 4.3 3.2 77 1.6 SSW 6 11 3 6 1025.4 - 0.0
22/10:00am 6.4 3.8 3.0 79 1.5 W 6 7 3 4 1025.4 1026.6 0.0
22/09:30am 5.6 3.6 2.3 79 1.4 W 2 6 1 3 1025.3 - 0.0
22/09:00am 5.1 3.4 2.1 81 1.2 CALM 0 0 0 0 1025.3 1026.5 0.0
22/08:30am 4.5 2.8 1.7 82 1.2 CALM 0 0 0 0 1025.2 - 0.0
22/08:00am 4.1 2.4 1.6 84 1.0 CALM 0 0 0 0 1025.1 1026.2 0.0
22/07:30am 3.7 1.9 1.1 83 1.0 CALM 0 0 0 0 1025.0 - 0.0
22/07:00am 3.7 1.9 1.1 83 1.0 CALM 0 0 0 0 1024.5 1025.7 0.0
22/06:30am 3.7 1.9 1.1 83 1.0 CALM 0 0 0 0 1024.3 - 0.0
22/06:00am 3.6 0.7 1.2 84 1.0 W 6 7 3 4 1024.1 1025.3 0.0
22/05:30am 3.6 0.7 1.2 84 1.0 WNW 6 7 3 4 1024.0 - 0.0
22/05:00am 3.8 2.0 1.2 83 1.0 CALM 0 0 0 0 1023.8 1025.0 0.0
22/04:30am 3.7 1.2 1.3 84 1.0 WSW 4 9 2 5 1023.7 - 0.0
22/04:00am 3.9 2.2 1.8 86 0.9 CALM 0 0 0 0 1023.7 1024.8 0.0
22/03:30am 4.0 2.3 1.9 86 0.9 CALM 0 0 0 0 1023.8 - 0.0
22/03:00am 3.8 2.1 2.0 88 0.7 CALM 0 0 0 0 1023.9 1025.1 0.0
22/02:30am 3.6 1.9 1.8 88 0.7 CALM 0 0 0 0 1024.0 - 0.0
22/02:00am 3.3 1.6 2.1 92 0.5 CALM 0 0 0 0 1024.0 1025.2 0.0
22/01:30am 2.8 1.1 2.1 95 0.3 CALM 0 0 0 0 1024.2 - 0.0
22/01:00am 2.6 0.9 2.0 96 0.2 CALM 0 0 0 0 1024.2 1025.4 0.0
22/12:30am 1.8 0.0 1.1 95 0.3 CALM 0 0 0 0 1024.3 - 0.0
22/12:00am 1.4 -0.6 0.2 92 0.5 CALM 0 0 0 0 1024.3 1025.5 0.0
 
Date/Time
EST
Temp
°C
App
Temp
°C
Dew
Point
Rel
Hum
%
Delta-T
°C
Wind Press
QNH
hPa
Press
MSL
hPa
Rain
since 9 am
mm
Dir
 
Spd
km/h
Gust
km/h
Spd
kts
Gust
kts
21/11:30pm 2.1 0.3 1.2 94 0.4 CALM 0 0 0 0 1024.4 - 0.0
21/11:00pm 2.0 0.1 0.8 92 0.5 CALM 0 0 0 0 1024.5 1025.7 0.0
21/10:30pm 2.1 -0.5 0.9 92 0.5 E 4 7 2 4 1024.6 - 0.0
21/10:00pm 2.2 0.4 0.9 91 0.5 CALM 0 0 0 0 1024.4 1025.6 0.0
21/09:30pm 1.9 0.0 0.3 89 0.6 CALM 0 0 0 0 1024.4 - 0.0
21/09:00pm 2.4 0.5 0.3 86 0.8 CALM 0 0 0 0 1024.4 1025.6 0.0
21/08:30pm 3.0 1.1 0.6 84 0.9 CALM 0 0 0 0 1024.3 - 0.0
21/08:00pm 4.1 1.1 1.1 81 1.2 ENE 6 6 3 3 1024.1 1025.3 0.0
21/07:30pm 4.4 2.6 1.4 81 1.2 CALM 0 0 0 0 1024.1 - 0.0
21/07:00pm 5.2 2.4 1.9 79 1.4 E 6 7 3 4 1023.9 1025.1 0.0
21/06:30pm 5.9 2.9 2.0 76 1.6 E 7 9 4 5 1023.8 - 0.0
21/06:00pm 6.4 4.7 1.9 73 1.9 CALM 0 0 0 0 1023.5 1024.6 0.0
21/05:30pm 7.8 4.9 1.6 65 2.6 NNW 6 7 3 4 1023.2 - 0.0
21/05:00pm 9.3 6.4 1.7 59 3.3 NNW 6 7 3 4 1023.2 1024.3 0.0
21/04:30pm 10.3 7.3 1.7 55 3.7 NNW 7 11 4 6 1023.1 - 0.0

Other Formats:

Comma delimited format used in spreadsheet applications
http://www.bom.gov.au/fwo/IDN60801/IDN60801.94925.axf

JavaScript Object Notation format (JSON) in row-major order
http://www.bom.gov.au/fwo/IDN60801/IDN60801.94925.json